KIAG

Niagara Falls International Airport

Airport
ICAO code
KIAG
IATA Code
IAG
Summary
ICAO Region
NAM
ICAO Territory
Location

Niagara Falls, New York,

Serving
Niagara Falls
Elevation
589 ft
Coordinates
43° 6' 17" N , 78° 56' 29" W
KCC
Airport GND
Aircraft Ground De/Anti Icing
Airport LOS
Parallel Runway Operation
Airport WX
Lake Effect Snow
Metar
Observation
KIAG 292253Z 13012KT 10SM FEW043 07/01 A3002 RMK AO2 SLP175 T00720011
Station
Niagara Falls, Niagara Falls International Airport
Date/Time
2022-11-29 22:53:00
Wind direction
130°
Wind speed
12 kts
Lowest cloud amount
few clouds
Temperature
7.2°C
Dew point
1.1°C
Humidity
65%
Weather condition
n/a

Niagara Falls International Airport is a joint civil-military (USAFR) airport located 6 km east of the central business district of Niagara Falls, in Niagara County, New York.

Climatology

Humid Continental climate (Köppen climate classification Dfb) - Variable weather patterns and a large seasonal temperature variance. Summers are often warm and humid with frequent thunderstorms and winters can be very cold with frequent snowfall and persistent snow cover.

Airport map

Aerial View

SKYbrary Partners:

Safety knowledge contributed by: